South Laguna, California
Current Conditions -  °F | °C
As of 5:53 PM on Saturday 25 Oct 2014 (Local Time) from KSNA Reporting Station
Few Clouds Few Clouds  
Wind Chill: 74°   Ceiling: Unl
Heat Index: 74°   Visibility: 10mi
Dew Point: 60°   Wind: 5mph
Humidity: 62%   Direction: 240°WSW
Pressure: 29.98"   Gusts: NA
Location:  33.5745°N, 117.786°W
Report Text: KSNA 260053Z 24004KT 10SM FEW150 23/16 A2998 RMK AO2 SLP151 T02330156
Loading
Personal Weather Stations






























Interactive Weather Map
Tropical Storm Tracking
New forecast layout! Learn more

10-Day Weather Forecast

Advertisements
Track Severe Weather on mobile